Airfield :







YOU CAN JOIN US ON...

 
LOGIN :

Register | Disclaimer

   EN    FR    IT 

 









Legend :    VFR   Marginal VFR   IFR   Intensive IFR   Very Intensive IFR
Visi :
Ceiling :
>= 8 km
>= 3000ft
5 to 8 km
1000 to 3000 ft
1500m to 5 km
500 to 1000 ft
800 to 1500m
200 to 500 ft
< 800m
< 200 ft
Symbols :   Thunderstorms  Fog  Heavy snow  Heavy precipitations  Wind > 20 kt






- Airport Elevation : 271 ft


KBAF - Barnes Municipal

CURRENT METAR :
  • 041353Z 32009G16KT 10SM BKN046 03/M07 A3017 RMK AO2 SLP220 T00331067

EXPIRED METARs :
  • 041253Z 33010G21KT 10SM BKN045 03/M07 A3018 RMK AO2 SLP223 T00281067
  • 041153Z 31009G23KT 10SM BKN044 02/M07 A3015 RMK AO2 SLP215 70029 T00221067 10033 20022 53019

TAF KBAF
Valid from the 04 at 14:00 until the 05 at 12:00 UTC


041332Z 0414/0512 33010G21KT P6SM BKN045
FM041700 30007KT P6SM SCT200
FM042300 24003KT P6SM FEW200
KZBW FIR / North America



MET'MAP, your aeronautical weather chart ! - Copyright ORBIFLY December 2007 - Disclaimer

ORBIFLY MET'MAP TEAM :

Programming & Development : Alexandra Zaïnal
Original concept : Baudouin d'Aumeries
Technical & hardware support : Manuel Goepfert
Assistance : Marc-Olivier Méhu




SOURCES & CREDITS :

   NOAA